Terminal Aerodrome Forecast
Issued by NWS Blacksburg, VA

Home | Current Version | Previous Version | Text Only | Print | Product List | Glossary On
Versions: 1 2 3 4 5 6 7 8 9 10 11 12 13 14 15 16 17 18 19 20 21 22 23 24 25 26 27 28
000
FTUS41 KRNK 021722
TAFROA
TAF
KROA 021722Z 0218/0318 24008G15KT 6SM SHRA VCTS BKN035CB OVC060
      TEMPO 0223/0302 VRB15G25KT 1SM +TSRA BR OVC025CB
     FM030400 22005KT P6SM -SHRA VCTS BKN050CB OVC250
     FM030600 VRB04KT P6SM VCSH OVC015
     FM031500 29008KT P6SM SCT015 BKN050=

USA.gov is the U.S. government's official web portal to all federal, state and local government web resources and services.